Time;durP1;ratioP1;P1;durP2;ratioP2;P2;SDS_P1;SDS_P2;PMS_P1;PMS_P2;Temp;Humidity;BMP_temperature;BMP_pressure;BME280_temperature;BME280_humidity;BME280_pressure;Samples;Min_cycle;Max_cycle;Signal;HPM_P1;HPM_P2
2023/05/04 17:49:54;;;;;;;8.35;5.38;;;24.30;49.40;;;;;;5068633;28;20472;-64
2023/05/04 17:52:19;;;;;;;7.30;4.35;;;23.70;51.00;;;;;;5068510;28;20032;-62
2023/05/04 17:54:45;;;;;;;9.05;4.75;;;23.70;51.50;;;;;;5065099;28;20025;-63
2023/05/04 17:57:10;;;;;;;10.00;5.40;;;23.60;51.50;;;;;;5067888;28;20460;-63
2023/05/04 17:59:36;;;;;;;7.07;4.47;;;24.10;51.20;;;;;;5068087;28;20017;-64
2023/05/04 18:02:02;;;;;;;6.57;4.47;;;24.90;49.60;;;;;;5068752;28;20093;-63
2023/05/04 18:04:30;;;;;;;7.95;4.88;;;25.50;48.60;;;;;;5069049;28;20071;-64
2023/05/04 18:06:56;;;;;;;6.88;4.28;;;25.90;47.70;;;;;;5068533;28;20060;-63
2023/05/04 18:09:21;;;;;;;8.90;4.25;;;26.20;47.50;;;;;;5067408;28;20508;-62
2023/05/04 18:11:47;;;;;;;5.78;3.97;;;26.40;47.10;;;;;;5070522;28;21502;-65
2023/05/04 18:14:12;;;;;;;9.15;4.20;;;26.20;46.90;;;;;;5081948;28;20040;-63
2023/05/04 18:16:38;;;;;;;25.63;9.18;;;25.70;47.60;;;;;;5066498;28;20112;-63
2023/05/04 18:19:05;;;;;;;70.72;15.77;;;25.20;48.70;;;;;;5068526;28;20028;-63
2023/05/04 18:21:34;;;;;;;63.10;15.23;;;24.70;49.90;;;;;;5068622;28;20021;-63
2023/05/04 18:24:00;;;;;;;70.88;15.27;;;24.20;51.00;;;;;;5067672;28;20025;-63
2023/05/04 18:26:25;;;;;;;69.90;13.55;;;23.70;51.90;;;;;;5068389;28;20369;-63
2023/05/04 18:28:51;;;;;;;65.78;16.48;;;23.30;52.50;;;;;;5067849;28;20040;-63
2023/05/04 18:31:17;;;;;;;43.83;10.68;;;23.00;53.20;;;;;;5067108;28;20060;-63
2023/05/04 18:33:43;;;;;;;27.67;7.30;;;22.70;53.60;;;;;;5065209;28;20086;-63
2023/05/04 18:36:09;;;;;;;25.67;8.07;;;22.40;54.10;;;;;;5066214;28;20052;-64
2023/05/04 18:38:35;;;;;;;691.78;639.08;;;22.20;54.80;;;;;;5067163;28;20033;-63
2023/05/04 18:41:01;;;;;;;92.45;21.92;;;22.00;55.30;;;;;;5068075;28;20021;-63
2023/05/04 18:43:27;;;;;;;39.75;9.82;;;21.80;55.90;;;;;;5067659;28;20056;-64
2023/05/04 18:45:52;;;;;;;30.35;9.48;;;21.60;56.50;;;;;;5068040;28;20563;-65
2023/05/04 18:48:18;;;;;;;16.42;6.05;;;21.50;57.00;;;;;;5068009;28;20048;-63
2023/05/04 18:50:55;;;;;;;55.05;12.02;;;21.40;57.40;;;;;;5065908;28;20442;-64
2023/05/04 18:53:22;;;;;;;56.88;13.70;;;21.20;57.70;;;;;;5067686;28;20107;-64
2023/05/04 18:56:09;;;;;;;75.97;16.48;;;21.10;58.60;;;;;;5067723;28;20020;-63
2023/05/04 18:58:36;;;;;;;30.58;9.13;;;21.00;58.40;;;;;;5066633;28;20055;-63
2023/05/04 19:01:02;;;;;;;22.42;7.05;;;20.80;58.70;;;;;;5056236;28;20021;-62
2023/05/04 19:03:28;;;;;;;10.95;4.30;;;20.70;58.90;;;;;;5053192;28;20025;-63
2023/05/04 19:05:54;;;;;;;7.50;4.57;;;20.60;58.90;;;;;;5052834;28;20017;-63
2023/05/04 19:08:19;;;;;;;9.77;4.68;;;20.50;58.90;;;;;;5053394;28;20558;-63
2023/05/04 19:10:46;;;;;;;7.72;4.78;;;20.40;59.10;;;;;;5054432;28;20469;-63
2023/05/04 19:13:11;;;;;;;9.35;5.82;;;20.30;59.20;;;;;;5053848;28;20086;-63
2023/05/04 19:15:37;;;;;;;10.13;6.63;;;20.20;59.60;;;;;;5057922;28;20032;-62
2023/05/04 19:18:03;;;;;;;54.13;22.40;;;20.10;59.90;;;;;;5074317;28;20060;-63
2023/05/04 19:20:28;;;;;;;54.85;18.00;;;20.00;60.50;;;;;;5073809;28;20024;-63
2023/05/04 19:22:54;;;;;;;66.13;20.23;;;19.90;60.90;;;;;;5071508;28;20350;-62
2023/05/04 19:25:21;;;;;;;59.78;19.45;;;19.80;61.00;;;;;;5070535;28;20024;-63
2023/05/04 19:27:46;;;;;;;58.67;17.92;;;19.70;61.00;;;;;;5073321;28;20036;-63
2023/05/04 19:30:12;;;;;;;41.78;13.38;;;19.60;61.10;;;;;;5072671;28;20024;-63
2023/05/04 19:32:38;;;;;;;26.67;8.85;;;19.50;61.40;;;;;;5057148;28;20020;-63
2023/05/04 19:35:07;;;;;;;16.95;7.53;;;19.50;61.70;;;;;;5052360;28;20021;-63
2023/05/04 19:37:35;;;;;;;12.43;6.60;;;19.40;62.00;;;;;;5053612;28;20465;-63
2023/05/04 19:40:01;;;;;;;13.30;5.38;;;19.30;62.20;;;;;;5051039;28;20184;-63
2023/05/04 19:42:27;;;;;;;9.52;5.00;;;19.20;62.50;;;;;;5052622;28;20104;-62
2023/05/04 19:44:52;;;;;;;10.60;6.18;;;19.10;62.90;;;;;;5053609;28;20351;-63
2023/05/04 19:47:18;;;;;;;11.10;5.38;;;19.00;63.30;;;;;;5049879;28;20032;-63
2023/05/04 19:49:47;;;;;;;9.10;5.22;;;18.90;63.50;;;;;;5047075;28;20061;-62
2023/05/04 19:52:13;;;;;;;8.95;5.30;;;18.80;64.00;;;;;;5053726;28;20021;-63
2023/05/04 19:54:42;;;;;;;11.75;5.18;;;18.60;64.20;;;;;;5052280;28;20031;-62
2023/05/04 19:57:08;;;;;;;11.02;5.72;;;18.60;64.80;;;;;;5053718;28;20017;-63
2023/05/04 19:59:34;;;;;;;9.32;5.80;;;18.40;65.00;;;;;;5052493;28;20017;-63
2023/05/04 20:02:00;;;;;;;8.20;5.45;;;18.30;65.50;;;;;;5052883;28;20104;-63
2023/05/04 20:04:26;;;;;;;8.50;5.75;;;18.30;66.10;;;;;;5053394;28;20495;-63
2023/05/04 20:06:52;;;;;;;9.52;5.55;;;18.20;66.10;;;;;;5053447;28;20108;-63
2023/05/04 20:09:18;;;;;;;9.75;5.88;;;18.00;66.30;;;;;;5051754;28;20449;-63
2023/05/04 20:11:43;;;;;;;8.90;6.13;;;18.10;66.60;;;;;;5051158;28;20057;-63
2023/05/04 20:14:09;;;;;;;10.40;6.28;;;17.90;66.90;;;;;;5052587;28;20120;-63
2023/05/04 20:16:35;;;;;;;11.60;6.10;;;17.90;67.30;;;;;;5052071;28;20024;-63
2023/05/04 20:19:02;;;;;;;13.50;6.22;;;17.80;67.70;;;;;;5051858;28;20029;-63
2023/05/04 20:21:28;;;;;;;12.15;6.38;;;17.70;68.30;;;;;;5053536;28;20381;-63
2023/05/04 20:23:54;;;;;;;12.80;5.95;;;17.60;68.80;;;;;;5058971;28;20028;-63
2023/05/04 20:26:22;;;;;;;8.30;5.30;;;17.40;69.20;;;;;;5063717;28;20032;-64
2023/05/04 20:28:48;;;;;;;9.52;5.25;;;17.40;69.50;;;;;;5072862;28;20603;-64
2023/05/04 20:31:14;;;;;;;10.20;5.03;;;17.30;70.10;;;;;;5056340;28;20021;-63
2023/05/04 20:33:39;;;;;;;11.68;5.20;;;17.20;70.60;;;;;;5052848;28;20021;-63
2023/05/04 20:36:06;;;;;;;8.48;5.75;;;17.00;71.50;;;;;;5052461;28;20025;-62
2023/05/04 20:38:31;;;;;;;8.77;5.20;;;17.00;72.30;;;;;;5050992;28;20021;-62
2023/05/04 20:41:03;;;;;;;8.20;4.78;;;16.80;73.00;;;;;;5052351;28;20027;-63
2023/05/04 20:43:29;;;;;;;10.18;4.88;;;16.60;74.10;;;;;;5050203;28;20029;-64
2023/05/04 20:45:56;;;;;;;7.85;4.72;;;16.50;74.80;;;;;;5052396;28;20036;-63
2023/05/04 20:48:21;;;;;;;6.30;4.38;;;16.40;75.60;;;;;;5052344;28;20040;-62
2023/05/04 20:50:47;;;;;;;8.32;5.03;;;16.30;76.40;;;;;;5051515;28;20468;-62
2023/05/04 20:53:12;;;;;;;10.73;5.35;;;16.20;77.30;;;;;;5051190;28;20021;-62
2023/05/04 20:55:39;;;;;;;8.95;4.63;;;16.10;78.10;;;;;;5049651;28;20086;-64
2023/05/04 20:58:05;;;;;;;7.10;4.35;;;16.00;78.90;;;;;;5051557;28;20470;-63
2023/05/04 21:00:30;;;;;;;7.78;4.82;;;15.80;79.50;;;;;;5052025;28;20021;-63
